createdAt,value
2022-10-19T00:00:39.096Z,14.38
2022-10-19T00:01:40.659Z,14.37
2022-10-19T00:02:42.246Z,14.38
2022-10-19T00:03:45.888Z,14.35
2022-10-19T00:04:47.412Z,14.35
2022-10-19T00:05:49.127Z,14.37
2022-10-19T00:06:50.618Z,14.37
2022-10-19T00:07:52.146Z,14.38
2022-10-19T00:08:55.696Z,14.35
2022-10-19T00:09:57.481Z,14.35
2022-10-19T00:11:01.878Z,14.32
2022-10-19T00:12:03.566Z,14.31
2022-10-19T00:13:05.047Z,14.30
2022-10-19T00:14:07.988Z,14.28
2022-10-19T00:15:09.921Z,14.25
2022-10-19T00:16:14.381Z,14.24
2022-10-19T00:17:15.985Z,14.24
2022-10-19T00:18:17.514Z,14.20
2022-10-19T00:19:25.351Z,14.15
2022-10-19T00:20:27.147Z,14.13
2022-10-19T00:21:29.569Z,14.09
2022-10-19T00:22:31.312Z,14.07
2022-10-19T00:23:33.110Z,14.06
2022-10-19T00:24:35.118Z,14.09
2022-10-19T00:25:38.395Z,14.04
2022-10-19T00:26:39.869Z,14.05
2022-10-19T00:27:41.343Z,14.05
2022-10-19T00:28:43.835Z,14.05
2022-10-19T00:29:45.664Z,14.04
2022-10-19T00:30:47.094Z,14.05
2022-10-19T00:31:51.627Z,14.06
2022-10-19T00:32:53.045Z,14.05
2022-10-19T00:33:56.656Z,14.04
2022-10-19T00:34:58.629Z,14.05
2022-10-19T00:36:00.134Z,14.06
2022-10-19T00:37:01.817Z,14.07
2022-10-19T00:38:03.258Z,14.09
2022-10-19T00:39:07.743Z,14.09
2022-10-19T00:40:10.181Z,14.07
2022-10-19T00:41:12.097Z,14.10
2022-10-19T00:42:13.907Z,14.09
2022-10-19T00:43:17.661Z,14.03
2022-10-19T00:44:19.066Z,14.02
2022-10-19T00:45:20.827Z,13.98
2022-10-19T00:46:22.827Z,13.94
2022-10-19T00:47:24.831Z,13.95
2022-10-19T00:48:31.129Z,13.96
2022-10-19T00:49:36.239Z,13.97
2022-10-19T00:50:38.633Z,13.96
2022-10-19T00:51:45.022Z,13.95
2022-10-19T00:52:46.774Z,13.96
2022-10-19T00:53:48.270Z,13.96
2022-10-19T00:54:52.863Z,13.98
2022-10-19T00:55:55.863Z,13.99
2022-10-19T00:56:58.694Z,13.95
2022-10-19T00:58:02.194Z,13.94
2022-10-19T00:59:05.976Z,13.93
2022-10-19T01:00:09.243Z,13.94
2022-10-19T01:01:16.497Z,13.93
2022-10-19T01:02:18.066Z,13.91
2022-10-19T01:03:20.286Z,13.90
2022-10-19T01:04:23.979Z,13.91
2022-10-19T01:05:26.765Z,13.91
2022-10-19T01:06:28.599Z,13.93
2022-10-19T01:07:30.597Z,13.93
2022-10-19T01:08:32.506Z,13.93
2022-10-19T01:09:34.457Z,13.94
2022-10-19T01:10:48.492Z,13.95
2022-10-19T01:13:28.030Z,13.90
2022-10-19T01:14:38.527Z,13.87
2022-10-19T01:15:58.594Z,13.87
2022-10-19T01:17:13.336Z,13.87
2022-10-19T01:18:21.486Z,13.86
2022-10-19T01:20:05.051Z,13.90
2022-10-19T01:21:09.603Z,13.90
2022-10-19T01:22:35.933Z,13.95
2022-10-19T01:23:55.836Z,13.86
2022-10-19T01:24:58.140Z,13.77
2022-10-19T01:26:26.160Z,13.77
2022-10-19T01:28:13.374Z,13.79
2022-10-19T01:29:52.781Z,13.77
2022-10-19T01:30:57.842Z,13.78
2022-10-19T01:32:08.119Z,13.78
2022-10-19T01:33:28.374Z,13.79
2022-10-19T01:34:37.066Z,13.80
2022-10-19T01:35:44.746Z,13.78
2022-10-19T01:37:02.778Z,13.78
2022-10-19T01:38:09.982Z,13.77
2022-10-19T01:39:20.354Z,13.76
2022-10-19T01:40:31.060Z,13.74
2022-10-19T01:41:45.926Z,13.72
2022-10-19T01:44:17.623Z,13.67
2022-10-19T01:45:30.597Z,13.65
2022-10-19T01:46:40.943Z,13.62
2022-10-19T01:47:54.471Z,13.64
2022-10-19T01:49:07.850Z,13.64
2022-10-19T01:50:37.702Z,13.65
2022-10-19T01:51:44.984Z,13.62
2022-10-19T01:52:49.614Z,13.62
2022-10-19T01:53:54.209Z,13.58
2022-10-19T01:54:59.235Z,13.57
2022-10-19T01:56:03.218Z,13.52
2022-10-19T01:57:08.350Z,13.48
2022-10-19T01:58:16.423Z,13.49
2022-10-19T01:59:21.055Z,13.48
2022-10-19T02:00:24.504Z,13.48
2022-10-19T02:01:30.099Z,13.46
2022-10-19T02:02:32.088Z,13.44
2022-10-19T02:03:34.908Z,13.41
2022-10-19T02:04:38.557Z,13.44
2022-10-19T02:05:41.786Z,13.45
2022-10-19T02:06:44.135Z,13.44
2022-10-19T02:07:51.302Z,13.44
2022-10-19T02:08:54.026Z,13.43
2022-10-19T02:09:56.650Z,13.39
2022-10-19T02:10:59.789Z,13.37
2022-10-19T02:12:05.839Z,13.36
2022-10-19T02:13:08.178Z,13.38
2022-10-19T02:14:13.356Z,13.38
2022-10-19T02:15:19.741Z,13.37
2022-10-19T02:16:29.270Z,13.35
2022-10-19T02:17:35.521Z,13.33
2022-10-19T02:18:41.763Z,13.31
2022-10-19T02:19:43.617Z,13.32
2022-10-19T02:20:46.369Z,13.32
2022-10-19T02:21:47.929Z,13.34
2022-10-19T02:22:49.978Z,13.35
2022-10-19T02:23:54.055Z,13.36
2022-10-19T02:24:56.108Z,13.35
2022-10-19T02:25:58.462Z,13.35
2022-10-19T02:27:00.674Z,13.33
2022-10-19T02:28:04.459Z,13.37
2022-10-19T02:29:06.282Z,13.37
2022-10-19T02:30:12.110Z,13.37
2022-10-19T02:31:14.121Z,13.36
2022-10-19T02:32:16.385Z,13.36
2022-10-19T02:33:18.014Z,13.37
2022-10-19T02:34:19.733Z,13.37
2022-10-19T02:35:21.564Z,13.34
2022-10-19T02:36:23.226Z,13.32
2022-10-19T02:37:25.595Z,13.33
2022-10-19T02:38:27.688Z,13.36
2022-10-19T02:39:29.372Z,13.37
2022-10-19T02:40:36.103Z,13.37
2022-10-19T02:42:07.806Z,13.33
2022-10-19T02:43:15.176Z,13.30
2022-10-19T02:44:26.061Z,13.30
2022-10-19T02:45:43.314Z,13.27
2022-10-19T02:46:49.739Z,13.24
2022-10-19T02:47:58.202Z,13.24
2022-10-19T02:49:02.980Z,13.24
2022-10-19T02:50:07.003Z,13.25
2022-10-19T02:51:27.964Z,13.23
2022-10-19T02:52:30.353Z,13.22
2022-10-19T02:53:31.807Z,13.24
2022-10-19T02:54:33.949Z,13.24
2022-10-19T02:55:35.622Z,13.20
2022-10-19T02:56:37.125Z,13.19
2022-10-19T02:57:38.601Z,13.20
2022-10-19T02:58:39.981Z,13.20
2022-10-19T02:59:41.386Z,13.22
2022-10-19T03:00:43.084Z,13.20
2022-10-19T03:01:44.537Z,13.22
2022-10-19T03:02:45.957Z,13.21
2022-10-19T03:03:47.505Z,13.22
2022-10-19T03:04:49.009Z,13.23
2022-10-19T03:05:50.548Z,13.26
2022-10-19T03:06:51.993Z,13.26
2022-10-19T03:07:53.428Z,13.26
2022-10-19T03:08:54.920Z,13.25
2022-10-19T03:09:56.644Z,13.25
2022-10-19T03:11:01.346Z,13.20
2022-10-19T03:12:02.986Z,13.17
2022-10-19T03:13:04.435Z,13.16
2022-10-19T03:14:05.871Z,13.15
2022-10-19T03:15:08.219Z,13.21
2022-10-19T03:16:11.620Z,13.20
2022-10-19T03:17:13.073Z,13.20
2022-10-19T03:18:14.490Z,13.19
2022-10-19T03:19:16.019Z,13.20
2022-10-19T03:20:17.814Z,13.16
2022-10-19T03:21:19.836Z,13.15
2022-10-19T03:22:21.310Z,13.12
2022-10-19T03:23:22.819Z,12.96
2022-10-19T03:24:24.404Z,12.97
2022-10-19T03:25:26.302Z,13.00
2022-10-19T03:26:27.734Z,13.01
2022-10-19T03:27:29.174Z,12.99
2022-10-19T03:28:30.951Z,12.99
2022-10-19T03:29:32.391Z,13.01
2022-10-19T03:30:34.118Z,13.06
2022-10-19T03:31:35.636Z,13.08
2022-10-19T03:32:37.114Z,13.09
2022-10-19T03:33:38.680Z,13.07
2022-10-19T03:34:40.132Z,13.10
2022-10-19T03:35:41.874Z,13.11
2022-10-19T03:36:43.392Z,13.10
2022-10-19T03:37:44.833Z,13.06
2022-10-19T03:38:46.478Z,13.03
2022-10-19T03:39:47.890Z,13.03
2022-10-19T03:40:49.638Z,13.04
2022-10-19T03:41:51.144Z,13.04
2022-10-19T03:42:52.547Z,13.05
2022-10-19T03:43:54.457Z,13.05
2022-10-19T03:44:56.373Z,13.03
2022-10-19T03:45:57.793Z,13.03
2022-10-19T03:46:59.232Z,12.92
2022-10-19T03:48:00.696Z,12.86
2022-10-19T03:49:02.927Z,12.86
2022-10-19T03:50:06.313Z,12.86
2022-10-19T03:51:10.769Z,12.89
2022-10-19T03:52:12.208Z,12.92
2022-10-19T03:53:15.052Z,12.92
2022-10-19T03:54:17.249Z,12.94
2022-10-19T03:55:19.036Z,12.97
2022-10-19T03:56:23.112Z,12.99
2022-10-19T03:57:24.636Z,13.03
2022-10-19T03:58:26.061Z,13.03
2022-10-19T03:59:27.581Z,13.04
2022-10-19T04:00:29.355Z,13.04
2022-10-19T04:01:40.802Z,13.04
2022-10-19T04:02:42.212Z,13.04
2022-10-19T04:03:44.426Z,13.03
2022-10-19T04:04:46.198Z,13.04
2022-10-19T04:05:47.610Z,13.03
2022-10-19T04:06:51.282Z,13.04
2022-10-19T04:07:52.695Z,13.03
2022-10-19T04:08:54.166Z,13.02
2022-10-19T04:09:55.663Z,13.03
2022-10-19T04:11:05.649Z,13.03
2022-10-19T04:12:07.087Z,13.02
2022-10-19T04:13:08.574Z,13.01
2022-10-19T04:14:22.766Z,13.00
2022-10-19T04:15:34.767Z,13.00
2022-10-19T04:16:36.222Z,12.96
2022-10-19T04:17:37.746Z,12.97
2022-10-19T04:18:39.214Z,12.94
2022-10-19T04:19:40.627Z,12.94
2022-10-19T04:20:43.816Z,12.94
2022-10-19T04:21:48.986Z,12.92
2022-10-19T04:22:52.778Z,12.92
2022-10-19T04:23:59.571Z,12.92
2022-10-19T04:25:00.961Z,12.91
2022-10-19T04:26:06.055Z,12.89
2022-10-19T04:27:07.479Z,12.87
2022-10-19T04:28:08.894Z,12.88
2022-10-19T04:29:11.274Z,12.87
2022-10-19T04:30:13.067Z,12.87
2022-10-19T04:31:14.666Z,12.85
2022-10-19T04:32:16.095Z,12.82
2022-10-19T04:33:17.542Z,12.80
2022-10-19T04:34:19.695Z,12.78
2022-10-19T04:35:21.583Z,12.77
2022-10-19T04:36:23.539Z,12.76
2022-10-19T04:37:24.976Z,12.72
2022-10-19T04:38:26.987Z,12.70
2022-10-19T04:39:28.411Z,12.70
2022-10-19T04:40:30.174Z,12.70
2022-10-19T04:41:32.979Z,12.67
2022-10-19T04:42:34.779Z,12.67
2022-10-19T04:43:37.266Z,12.67
2022-10-19T04:44:38.925Z,12.68
2022-10-19T04:45:40.345Z,12.67
2022-10-19T04:46:41.787Z,12.62
2022-10-19T04:47:43.193Z,12.57
2022-10-19T04:48:46.267Z,12.55
2022-10-19T04:49:47.961Z,12.51
2022-10-19T04:50:49.367Z,12.52
2022-10-19T04:51:50.777Z,12.51
2022-10-19T04:52:52.337Z,12.51
2022-10-19T04:53:59.322Z,12.49
2022-10-19T04:55:01.986Z,12.47
2022-10-19T04:56:08.773Z,12.46
2022-10-19T04:57:10.166Z,12.45
2022-10-19T04:58:11.563Z,12.44
2022-10-19T04:59:13.057Z,12.44
2022-10-19T05:00:15.212Z,12.41
2022-10-19T05:01:21.078Z,12.40
2022-10-19T05:02:22.619Z,12.41
2022-10-19T05:03:24.136Z,12.39
2022-10-19T05:04:25.863Z,12.39
2022-10-19T05:05:27.254Z,12.38
2022-10-19T05:06:30.320Z,12.35
2022-10-19T05:07:32.014Z,12.35
2022-10-19T05:08:34.696Z,12.34
2022-10-19T05:09:37.505Z,12.32
2022-10-19T05:10:38.956Z,12.32
2022-10-19T05:11:40.453Z,12.32
2022-10-19T05:12:41.870Z,12.32
2022-10-19T05:13:43.951Z,12.33
2022-10-19T05:14:45.688Z,12.33
2022-10-19T05:16:06.994Z,12.35
2022-10-19T05:17:08.342Z,12.36
2022-10-19T05:18:09.650Z,12.36
2022-10-19T05:19:12.851Z,12.36
2022-10-19T05:20:14.325Z,12.36
2022-10-19T05:21:15.965Z,12.36
2022-10-19T05:22:17.419Z,12.37
2022-10-19T05:23:18.910Z,12.34
2022-10-19T05:24:20.467Z,12.32
2022-10-19T05:25:21.864Z,12.32
2022-10-19T05:26:25.713Z,12.33
2022-10-19T05:27:27.314Z,12.34
2022-10-19T05:28:28.837Z,12.34
2022-10-19T05:29:31.034Z,12.34
2022-10-19T05:30:32.729Z,12.34
2022-10-19T05:31:34.717Z,12.33
2022-10-19T05:32:36.175Z,12.32
2022-10-19T05:33:38.335Z,12.33
2022-10-19T05:34:40.155Z,12.30
2022-10-19T05:35:41.567Z,12.30
2022-10-19T05:36:43.067Z,12.29
2022-10-19T05:37:44.566Z,12.30
2022-10-19T05:38:49.323Z,12.28
2022-10-19T05:39:51.086Z,12.27
2022-10-19T05:40:53.700Z,12.26
2022-10-19T05:41:55.263Z,12.24
2022-10-19T05:42:56.663Z,12.21
2022-10-19T05:44:01.015Z,12.21
2022-10-19T05:45:02.441Z,12.22
2022-10-19T05:46:06.211Z,12.24
2022-10-19T05:47:07.655Z,12.23
2022-10-19T05:48:09.055Z,12.22
2022-10-19T05:49:12.103Z,12.23
2022-10-19T05:50:13.542Z,12.24
2022-10-19T05:51:20.639Z,12.26
2022-10-19T05:52:22.657Z,12.28
2022-10-19T05:53:24.177Z,12.30
2022-10-19T05:54:27.788Z,12.32
2022-10-19T05:55:34.600Z,12.30
2022-10-19T05:56:36.047Z,12.32
2022-10-19T05:57:37.642Z,12.33
2022-10-19T05:58:39.567Z,12.32
2022-10-19T05:59:41.021Z,12.30
2022-10-19T06:00:42.823Z,12.29
2022-10-19T06:01:44.522Z,12.26
2022-10-19T06:02:45.961Z,12.23
2022-10-19T06:03:52.063Z,12.21
2022-10-19T06:04:53.542Z,12.20
2022-10-19T06:05:55.635Z,12.23
2022-10-19T06:06:57.064Z,12.27
2022-10-19T06:07:58.477Z,12.29
2022-10-19T06:09:01.167Z,12.29
2022-10-19T06:10:02.588Z,12.32
2022-10-19T06:11:07.271Z,12.35
2022-10-19T06:12:08.679Z,12.37
2022-10-19T06:13:10.722Z,12.37
2022-10-19T06:14:15.323Z,12.37
2022-10-19T06:15:16.935Z,12.38
2022-10-19T06:16:20.178Z,12.40
2022-10-19T06:17:21.575Z,12.40
2022-10-19T06:18:25.709Z,12.42
2022-10-19T06:19:27.496Z,12.44
2022-10-19T06:20:29.559Z,12.44
2022-10-19T06:21:32.834Z,12.46
2022-10-19T06:22:34.259Z,12.46
2022-10-19T06:23:36.101Z,12.48
2022-10-19T06:24:37.874Z,12.49
2022-10-19T06:25:40.701Z,12.51
2022-10-19T06:26:42.259Z,12.55
2022-10-19T06:27:43.739Z,12.56
2022-10-19T06:28:46.017Z,12.55
2022-10-19T06:29:47.502Z,12.57
2022-10-19T06:30:48.982Z,12.56
2022-10-19T06:31:50.488Z,12.56
2022-10-19T06:32:52.205Z,12.57
2022-10-19T06:33:55.544Z,12.59
2022-10-19T06:34:57.281Z,12.57
2022-10-19T06:36:18.674Z,12.54
2022-10-19T06:37:19.995Z,12.53
2022-10-19T06:38:21.432Z,12.52
2022-10-19T06:39:23.234Z,12.53
2022-10-19T06:40:25.301Z,12.55
2022-10-19T06:41:27.616Z,12.55
2022-10-19T06:42:29.056Z,12.55
2022-10-19T06:43:30.679Z,12.56
2022-10-19T06:44:32.505Z,12.57
2022-10-19T06:45:36.008Z,12.60
2022-10-19T06:46:38.458Z,12.61
2022-10-19T06:47:39.945Z,12.62
2022-10-19T06:48:42.028Z,12.61
2022-10-19T06:49:44.272Z,12.61
2022-10-19T06:50:45.685Z,12.60
2022-10-19T06:51:47.140Z,12.63
2022-10-19T06:52:48.658Z,12.64
2022-10-19T06:53:52.842Z,12.65
2022-10-19T06:54:57.200Z,12.65
2022-10-19T06:55:59.606Z,12.64
2022-10-19T06:57:01.074Z,12.64
2022-10-19T06:58:02.824Z,12.61
2022-10-19T06:59:04.747Z,12.63
2022-10-19T07:00:07.163Z,12.63
2022-10-19T07:01:10.265Z,12.64
2022-10-19T07:02:12.515Z,12.64
2022-10-19T07:03:13.953Z,12.66
2022-10-19T07:04:15.766Z,12.64
2022-10-19T07:05:17.339Z,12.64
2022-10-19T07:06:18.852Z,12.64
2022-10-19T07:07:20.332Z,12.68
2022-10-19T07:08:22.121Z,12.70
2022-10-19T07:09:24.024Z,12.68
2022-10-19T07:10:25.483Z,12.68
2022-10-19T07:11:26.912Z,12.67
2022-10-19T07:12:28.354Z,12.64
2022-10-19T07:13:30.856Z,12.62
2022-10-19T07:14:38.713Z,12.65
2022-10-19T07:15:40.143Z,12.68
2022-10-19T07:16:41.588Z,12.67
2022-10-19T07:17:43.035Z,12.67
2022-10-19T07:18:44.949Z,12.67
2022-10-19T07:19:46.398Z,12.67
2022-10-19T07:21:15.095Z,12.68
2022-10-19T07:22:21.232Z,12.66
2022-10-19T07:23:27.886Z,12.67
2022-10-19T07:24:29.422Z,12.68
2022-10-19T07:25:30.900Z,12.71
2022-10-19T07:26:33.700Z,12.73
2022-10-19T07:27:37.849Z,12.74
2022-10-19T07:28:40.645Z,12.76
2022-10-19T07:29:42.118Z,12.74
2022-10-19T07:30:43.546Z,12.73
2022-10-19T07:31:44.990Z,12.71
2022-10-19T07:32:47.202Z,12.73
2022-10-19T07:33:54.387Z,12.73
2022-10-19T07:34:55.841Z,12.74
2022-10-19T07:36:06.727Z,12.74
2022-10-19T07:37:08.194Z,12.74
2022-10-19T07:38:09.836Z,12.74
2022-10-19T07:39:12.871Z,12.78
2022-10-19T07:40:14.346Z,12.81
2022-10-19T07:41:18.335Z,12.83
2022-10-19T07:42:19.810Z,12.84
2022-10-19T07:43:21.233Z,12.86
2022-10-19T07:44:23.052Z,12.87
2022-10-19T07:45:24.491Z,12.87
2022-10-19T07:46:29.242Z,12.89
2022-10-19T07:47:30.823Z,12.88
2022-10-19T07:48:33.649Z,12.88
2022-10-19T07:49:35.058Z,12.87
2022-10-19T07:50:36.493Z,12.87
2022-10-19T07:51:38.627Z,12.85
2022-10-19T07:52:40.283Z,12.82
2022-10-19T07:53:42.951Z,12.80
2022-10-19T07:54:44.395Z,12.81
2022-10-19T07:55:45.969Z,12.83
2022-10-19T07:56:47.473Z,12.85
2022-10-19T07:57:50.245Z,12.86
2022-10-19T07:58:54.753Z,12.88
2022-10-19T07:59:56.197Z,12.87
2022-10-19T08:01:02.258Z,12.90
2022-10-19T08:02:04.933Z,12.89
2022-10-19T08:04:59.497Z,12.83
2022-10-19T08:05:49.728Z,12.81
2022-10-19T08:06:51.193Z,12.83
2022-10-19T08:07:52.647Z,12.82
2022-10-19T08:08:55.117Z,12.72
2022-10-19T08:09:56.759Z,12.77
2022-10-19T08:10:58.622Z,12.81
2022-10-19T08:12:00.116Z,12.84
2022-10-19T08:13:01.537Z,12.89
2022-10-19T08:14:04.292Z,12.91
2022-10-19T08:15:07.149Z,12.93
2022-10-19T08:16:27.332Z,12.95
2022-10-19T08:17:28.775Z,12.96
2022-10-19T08:19:41.651Z,12.94
2022-10-19T08:20:44.211Z,12.96
2022-10-19T08:21:47.030Z,12.97
2022-10-19T08:22:48.576Z,12.99
2022-10-19T08:23:51.959Z,13.02
2022-10-19T08:24:53.435Z,13.01
2022-10-19T08:25:59.413Z,12.99
2022-10-19T08:27:02.592Z,12.97
2022-10-19T08:28:04.291Z,12.97
2022-10-19T08:29:10.202Z,12.97
2022-10-19T08:30:11.696Z,12.98
2022-10-19T08:31:19.205Z,12.94
2022-10-19T08:32:20.796Z,12.92
2022-10-19T08:33:22.223Z,12.96
2022-10-19T08:34:24.053Z,12.98
2022-10-19T08:35:25.502Z,12.99
2022-10-19T08:36:27.576Z,12.93
2022-10-19T08:37:40.741Z,12.78
2022-10-19T08:38:48.668Z,12.76
2022-10-19T08:39:50.075Z,12.66
2022-10-19T08:40:51.513Z,12.66
2022-10-19T08:42:20.382Z,12.70
2022-10-19T08:43:33.259Z,12.65
2022-10-19T08:44:34.608Z,12.66
2022-10-19T08:45:46.947Z,12.71
2022-10-19T08:47:12.428Z,12.75
2022-10-19T08:48:26.075Z,12.79
2022-10-19T08:49:30.144Z,12.85
2022-10-19T08:50:40.920Z,12.88
2022-10-19T08:51:44.011Z,12.89
2022-10-19T08:52:52.275Z,12.92
2022-10-19T08:54:00.957Z,12.94
2022-10-19T08:55:09.089Z,12.97
2022-10-19T08:56:51.064Z,13.01
2022-10-19T08:58:08.021Z,13.03
2022-10-19T08:59:30.428Z,12.98
2022-10-19T09:00:43.317Z,12.88
2022-10-19T09:01:58.203Z,12.85
2022-10-19T09:03:27.091Z,12.84
2022-10-19T09:04:42.726Z,12.66
2022-10-19T09:06:03.185Z,12.75
2022-10-19T09:07:31.031Z,12.80
2022-10-19T09:08:36.981Z,12.87
2022-10-19T09:09:47.694Z,12.89
2022-10-19T09:10:51.728Z,12.93
2022-10-19T09:12:05.654Z,12.98
2022-10-19T09:13:22.589Z,13.03
2022-10-19T09:15:03.420Z,13.09
2022-10-19T09:16:05.327Z,13.13
2022-10-19T09:17:12.479Z,13.17
2022-10-19T09:18:27.797Z,13.21
2022-10-19T09:19:32.236Z,13.22
2022-10-19T09:20:46.976Z,13.19
2022-10-19T09:22:25.099Z,13.22
2022-10-19T09:23:34.672Z,13.25
2022-10-19T09:24:43.887Z,13.28
2022-10-19T09:25:47.882Z,13.30
2022-10-19T09:26:55.742Z,13.22
2022-10-19T09:28:31.429Z,13.14
2022-10-19T09:29:43.523Z,13.20
2022-10-19T09:30:48.391Z,13.22
2022-10-19T09:31:55.083Z,13.24
2022-10-19T09:33:01.879Z,13.31
2022-10-19T09:34:10.636Z,13.41
2022-10-19T09:35:15.022Z,13.48
2022-10-19T09:36:22.569Z,13.53
2022-10-19T09:38:36.753Z,13.56
2022-10-19T09:39:39.960Z,13.59
2022-10-19T09:40:43.899Z,13.64
2022-10-19T09:41:50.067Z,13.65
2022-10-19T09:42:57.087Z,13.67
2022-10-19T09:43:59.273Z,13.70
2022-10-19T09:45:12.366Z,13.74
2022-10-19T09:46:20.640Z,13.76
2022-10-19T09:47:42.361Z,13.79
2022-10-19T09:48:51.576Z,13.81
2022-10-19T09:50:07.022Z,13.83
2022-10-19T09:51:14.716Z,13.81
2022-10-19T09:52:35.507Z,13.87
2022-10-19T09:53:37.139Z,13.89
2022-10-19T09:54:39.762Z,13.89
2022-10-19T09:56:55.684Z,13.90
2022-10-19T09:58:20.422Z,13.92
2022-10-19T09:59:25.055Z,13.94
2022-10-19T10:00:33.770Z,13.95
2022-10-19T10:01:43.211Z,13.96
2022-10-19T10:02:56.054Z,13.98
2022-10-19T10:04:15.821Z,14.00
2022-10-19T10:05:18.441Z,14.03
2022-10-19T10:06:21.339Z,14.04
2022-10-19T10:07:25.442Z,14.09
2022-10-19T10:08:31.262Z,14.13
2022-10-19T10:09:39.485Z,14.18
2022-10-19T10:10:46.016Z,14.19
2022-10-19T10:11:49.691Z,14.30
2022-10-19T10:12:53.122Z,14.34
2022-10-19T10:13:56.420Z,14.35
2022-10-19T10:14:57.990Z,14.45
2022-10-19T10:16:03.666Z,14.53
2022-10-19T10:17:12.480Z,14.60
2022-10-19T10:18:16.963Z,14.69
2022-10-19T10:19:19.383Z,14.82
2022-10-19T10:20:32.318Z,14.92
2022-10-19T10:21:47.760Z,15.02
2022-10-19T10:23:06.099Z,15.13
2022-10-19T10:24:10.634Z,15.14
2022-10-19T10:25:18.815Z,15.14
2022-10-19T10:26:20.334Z,15.00
2022-10-19T10:27:32.924Z,14.81
2022-10-19T10:28:47.780Z,14.80
2022-10-19T10:31:07.324Z,14.75
2022-10-19T10:32:14.917Z,14.68
2022-10-19T10:33:33.363Z,14.66
2022-10-19T10:34:53.115Z,14.78
2022-10-19T10:36:07.096Z,14.67
2022-10-19T10:37:18.105Z,14.61
2022-10-19T10:38:26.612Z,14.53
2022-10-19T10:39:29.663Z,14.45
2022-10-19T10:40:31.674Z,14.45
2022-10-19T10:41:43.318Z,14.52
2022-10-19T10:42:47.280Z,14.52
2022-10-19T10:43:59.608Z,14.56
2022-10-19T10:45:04.660Z,14.62
2022-10-19T10:46:16.667Z,14.57
2022-10-19T10:47:21.293Z,14.56
2022-10-19T10:48:22.682Z,14.52
2022-10-19T10:49:34.443Z,14.52
2022-10-19T10:50:36.815Z,14.55
2022-10-19T10:51:43.906Z,14.61
2022-10-19T10:52:58.249Z,14.66
2022-10-19T10:54:17.476Z,14.77
2022-10-19T10:55:19.032Z,14.72
2022-10-19T10:56:29.279Z,14.64
2022-10-19T10:57:36.021Z,14.69
2022-10-19T10:58:44.475Z,14.63
2022-10-19T11:00:11.303Z,14.59
2022-10-19T11:01:22.965Z,14.66
2022-10-19T11:02:42.957Z,14.73
2022-10-19T11:03:51.641Z,14.79
2022-10-19T11:04:59.383Z,14.85
2022-10-19T11:06:02.723Z,15.01
2022-10-19T11:07:32.673Z,15.06
2022-10-19T11:09:01.375Z,15.01
2022-10-19T11:10:11.609Z,14.99
2022-10-19T11:11:24.927Z,15.16
2022-10-19T11:13:03.426Z,14.91
2022-10-19T11:14:24.742Z,14.77
2022-10-19T11:16:42.054Z,14.85
2022-10-19T11:17:53.941Z,14.96
2022-10-19T11:19:06.035Z,14.97
2022-10-19T11:20:15.182Z,15.07
2022-10-19T11:21:16.643Z,15.20
2022-10-19T11:22:41.668Z,15.37
2022-10-19T11:24:14.116Z,15.46
2022-10-19T11:25:55.690Z,15.43
2022-10-19T11:27:09.604Z,15.21
2022-10-19T11:28:43.742Z,15.24
2022-10-19T11:30:09.439Z,15.34
2022-10-19T11:31:51.486Z,15.35
2022-10-19T11:33:04.883Z,15.43
2022-10-19T11:34:45.101Z,15.61
2022-10-19T11:36:03.847Z,15.40
2022-10-19T11:37:15.975Z,15.29
2022-10-19T11:38:30.059Z,15.18
2022-10-19T11:39:46.907Z,15.18
2022-10-19T11:41:17.349Z,15.14
2022-10-19T11:42:19.935Z,15.22
2022-10-19T11:43:34.716Z,15.33
2022-10-19T11:44:36.539Z,15.40
2022-10-19T11:45:43.992Z,15.50
2022-10-19T11:46:55.663Z,15.19
2022-10-19T11:48:05.794Z,15.34
2022-10-19T11:49:30.080Z,15.41
2022-10-19T11:50:58.400Z,15.53
2022-10-19T11:52:16.159Z,15.62
2022-10-19T11:53:34.996Z,15.75
2022-10-19T11:54:55.016Z,15.74
2022-10-19T11:56:06.614Z,15.73
2022-10-19T11:57:20.588Z,15.55
2022-10-19T11:58:38.118Z,15.44
2022-10-19T11:59:53.537Z,15.48
2022-10-19T12:01:12.710Z,15.77
2022-10-19T12:02:43.322Z,15.69
2022-10-19T12:03:50.507Z,15.68
2022-10-19T12:05:10.439Z,15.75
2022-10-19T12:06:23.691Z,15.85
2022-10-19T12:07:46.042Z,15.94
2022-10-19T12:09:06.294Z,15.96
2022-10-19T12:10:33.804Z,15.96
2022-10-19T12:11:56.182Z,16.03
2022-10-19T12:13:03.374Z,16.02
2022-10-19T12:14:09.646Z,16.08
2022-10-19T12:15:10.987Z,16.05
2022-10-19T12:16:14.033Z,16.05
2022-10-19T12:17:23.411Z,16.06
2022-10-19T12:18:36.664Z,16.05
2022-10-19T12:19:44.450Z,16.13
2022-10-19T12:20:57.049Z,16.12
2022-10-19T12:22:02.142Z,16.12
2022-10-19T12:23:20.981Z,16.10
2022-10-19T12:24:25.276Z,16.26
2022-10-19T12:25:27.798Z,16.46
2022-10-19T12:26:34.702Z,16.56
2022-10-19T12:27:39.285Z,16.45
2022-10-19T12:28:47.760Z,16.09
2022-10-19T12:29:49.978Z,16.20
2022-10-19T12:30:53.242Z,16.31
2022-10-19T12:31:56.423Z,16.48
2022-10-19T12:33:16.753Z,16.60
2022-10-19T12:34:22.787Z,16.50
2022-10-19T12:35:39.723Z,16.58
2022-10-19T12:37:02.903Z,16.71
2022-10-19T12:38:19.664Z,16.83
2022-10-19T12:39:30.831Z,16.48
2022-10-19T12:40:55.872Z,16.53
2022-10-19T12:42:11.849Z,16.64
2022-10-19T12:43:19.948Z,16.77
2022-10-19T12:44:30.619Z,16.88
2022-10-19T12:45:53.504Z,16.95
2022-10-19T12:47:10.432Z,16.98
2022-10-19T12:48:18.974Z,16.92
2022-10-19T12:49:26.614Z,17.10
2022-10-19T12:50:50.029Z,17.13
2022-10-19T12:51:52.253Z,17.19
2022-10-19T12:52:54.710Z,17.27
2022-10-19T12:54:09.450Z,17.08
2022-10-19T12:55:23.272Z,16.95
2022-10-19T12:56:26.114Z,17.11
2022-10-19T12:57:28.637Z,17.25
2022-10-19T12:58:40.694Z,17.43
2022-10-19T12:59:45.285Z,17.52
2022-10-19T13:00:59.309Z,17.63
2022-10-19T13:02:04.398Z,17.75
2022-10-19T13:03:15.758Z,17.86
2022-10-19T13:04:33.296Z,17.93
2022-10-19T13:05:35.865Z,18.05
2022-10-19T13:06:44.762Z,18.15
2022-10-19T13:08:59.866Z,18.25
2022-10-19T13:10:04.505Z,17.84
2022-10-19T13:11:09.941Z,17.80
2022-10-19T13:12:21.658Z,18.13
2022-10-19T13:13:52.101Z,18.37
2022-10-19T13:14:58.715Z,18.64
2022-10-19T13:16:00.179Z,18.53
2022-10-19T13:17:02.775Z,18.65
2022-10-19T13:18:16.875Z,18.81
2022-10-19T13:19:20.753Z,19.07
2022-10-19T13:20:24.658Z,19.18
2022-10-19T13:21:52.523Z,19.21
2022-10-19T13:22:59.729Z,19.04
2022-10-19T13:24:25.312Z,19.28
2022-10-19T13:25:28.824Z,19.50
2022-10-19T13:26:33.560Z,19.53
2022-10-19T13:27:37.367Z,19.42
2022-10-19T13:28:51.871Z,19.35
2022-10-19T13:29:53.353Z,19.27
2022-10-19T13:31:00.501Z,19.33
2022-10-19T13:32:45.190Z,19.04
2022-10-19T13:33:48.750Z,19.38
2022-10-19T13:34:50.627Z,19.52
2022-10-19T13:36:02.340Z,19.85
2022-10-19T13:37:04.606Z,20.10
2022-10-19T13:38:14.930Z,20.28
2022-10-19T13:39:17.243Z,20.43
2022-10-19T13:40:24.464Z,20.65
2022-10-19T13:41:36.752Z,20.90
2022-10-19T13:42:38.522Z,21.09
2022-10-19T13:43:58.796Z,21.29
2022-10-19T13:45:00.309Z,21.54
2022-10-19T13:46:15.774Z,21.61
2022-10-19T13:47:17.175Z,21.40
2022-10-19T13:48:32.554Z,21.22
2022-10-19T13:49:54.213Z,21.13
2022-10-19T13:51:07.284Z,20.95
2022-10-19T13:52:40.073Z,20.85
2022-10-19T13:53:46.983Z,20.65
2022-10-19T13:55:03.684Z,20.46
2022-10-19T13:56:16.135Z,20.34
2022-10-19T13:57:34.269Z,20.35
2022-10-19T13:58:51.283Z,20.47
2022-10-19T14:00:05.371Z,20.67
2022-10-19T14:01:16.001Z,20.80
2022-10-19T14:02:46.201Z,20.95
2022-10-19T14:04:17.914Z,21.07
2022-10-19T14:05:41.331Z,21.21
2022-10-19T14:06:50.191Z,21.04
2022-10-19T14:08:19.519Z,21.42
2022-10-19T14:09:43.164Z,21.74
2022-10-19T14:11:00.589Z,21.83
2022-10-19T14:12:16.176Z,21.98
2022-10-19T14:13:17.654Z,22.08
2022-10-19T14:14:24.902Z,21.60
2022-10-19T14:15:29.603Z,21.53
2022-10-19T14:16:31.085Z,21.63
2022-10-19T14:17:34.163Z,21.79
2022-10-19T14:18:37.517Z,21.92
2022-10-19T14:19:49.188Z,21.82
2022-10-19T14:20:58.112Z,21.62
2022-10-19T14:22:01.226Z,21.59
2022-10-19T14:23:41.394Z,21.64
2022-10-19T14:24:43.195Z,21.62
2022-10-19T14:26:11.923Z,21.66
2022-10-19T14:27:19.107Z,21.80
2022-10-19T14:28:21.820Z,21.83
2022-10-19T14:29:23.719Z,21.76
2022-10-19T14:30:33.842Z,21.70
2022-10-19T14:31:36.509Z,21.72
2022-10-19T14:32:41.243Z,21.59
2022-10-19T14:33:46.536Z,21.57